createdAt,value
2019-03-11T00:00:35.075Z,4.57
2019-03-11T00:03:05.052Z,3.03
2019-03-11T00:05:34.822Z,1.60
2019-03-11T00:08:04.464Z,5.07
2019-03-11T00:10:34.300Z,1.27
2019-03-11T00:13:04.667Z,1.53
2019-03-11T00:15:34.328Z,5.13
2019-03-11T00:18:03.989Z,1.20
2019-03-11T00:20:33.528Z,3.63
2019-03-11T00:23:03.057Z,1.80
2019-03-11T00:25:32.907Z,0.90
2019-03-11T00:28:02.355Z,2.10
2019-03-11T00:30:32.124Z,2.20
2019-03-11T00:33:01.535Z,1.43
2019-03-11T00:35:31.300Z,1.87
2019-03-11T00:38:00.739Z,0.70
2019-03-11T00:40:30.159Z,1.00
2019-03-11T00:42:59.927Z,0.70
2019-03-11T00:45:29.739Z,2.43
2019-03-11T00:48:02.405Z,2.30
2019-03-11T00:50:30.671Z,0.80
2019-03-11T00:53:00.360Z,1.00
2019-03-11T00:55:29.771Z,1.00
2019-03-11T00:57:59.515Z,1.20
2019-03-11T01:00:32.049Z,3.10
2019-03-11T01:03:01.612Z,3.33
2019-03-11T01:05:31.094Z,6.93
2019-03-11T01:08:01.023Z,1.57
2019-03-11T01:10:30.570Z,1.50
2019-03-11T01:12:59.990Z,1.77
2019-03-11T01:15:29.848Z,2.87
2019-03-11T01:17:59.339Z,3.90
2019-03-11T01:20:28.762Z,13.30
2019-03-11T01:22:58.428Z,4.07
2019-03-11T01:25:27.932Z,3.60
2019-03-11T01:27:57.420Z,7.60
2019-03-11T01:30:27.392Z,6.53
2019-03-11T01:32:56.883Z,7.23
2019-03-11T01:35:26.309Z,1.53
2019-03-11T01:37:55.819Z,2.70
2019-03-11T01:40:25.535Z,5.33
2019-03-11T01:42:54.995Z,4.60
2019-03-11T01:45:24.727Z,1.97
2019-03-11T01:47:54.142Z,2.20
2019-03-11T01:50:23.869Z,6.73
2019-03-11T01:52:53.814Z,2.03
2019-03-11T01:55:23.681Z,19.10
2019-03-11T01:57:53.094Z,1.47
2019-03-11T02:00:22.607Z,3.80
2019-03-11T02:02:52.023Z,1.23
2019-03-11T02:05:21.443Z,8.23
2019-03-11T02:07:51.232Z,1.07
2019-03-11T02:10:21.731Z,6.60
2019-03-11T02:12:51.220Z,6.50
2019-03-11T02:15:20.907Z,3.73
2019-03-11T02:17:50.400Z,1.57
2019-03-11T02:20:19.887Z,3.97
2019-03-11T02:22:49.547Z,8.77
2019-03-11T02:25:19.378Z,4.30
2019-03-11T02:27:48.805Z,11.70
2019-03-11T02:30:18.664Z,9.03
2019-03-11T02:32:48.412Z,2.73
2019-03-11T02:35:31.609Z,0.80
2019-03-11T02:38:01.091Z,1.60
2019-03-11T02:40:30.648Z,4.63
2019-03-11T02:43:00.171Z,1.60
2019-03-11T02:45:29.971Z,7.43
2019-03-11T02:47:59.543Z,21.73
2019-03-11T02:50:29.522Z,1.10
2019-03-11T02:52:59.011Z,0.90
2019-03-11T02:55:28.435Z,0.63
2019-03-11T02:57:58.031Z,0.80
2019-03-11T03:00:27.521Z,14.53
2019-03-11T03:03:10.574Z,6.07
2019-03-11T03:05:44.534Z,3.87
2019-03-11T03:08:14.360Z,8.43
2019-03-11T03:10:48.457Z,1.97
2019-03-11T03:13:18.312Z,6.23
2019-03-11T03:15:47.725Z,4.70
2019-03-11T03:18:17.662Z,6.50
2019-03-11T03:20:47.125Z,1.50
2019-03-11T03:23:16.566Z,5.80
2019-03-11T03:25:46.099Z,5.30
2019-03-11T03:28:15.527Z,2.87
2019-03-11T03:30:45.017Z,4.30
2019-03-11T03:33:14.558Z,9.33
2019-03-11T03:35:44.075Z,0.90
2019-03-11T03:38:28.871Z,6.37
2019-03-11T03:40:47.897Z,4.83
2019-03-11T03:43:17.388Z,3.40
2019-03-11T03:45:47.117Z,14.23
2019-03-11T03:48:16.686Z,9.00
2019-03-11T03:50:46.336Z,7.00
2019-03-11T03:53:15.753Z,2.20
2019-03-11T03:55:45.314Z,7.10
2019-03-11T03:58:14.810Z,1.90
2019-03-11T04:00:44.319Z,2.57
2019-03-11T04:03:13.992Z,2.93
2019-03-11T04:05:43.884Z,2.27
2019-03-11T04:08:13.447Z,2.93
2019-03-11T04:10:43.023Z,2.07
2019-03-11T04:13:13.392Z,4.13
2019-03-11T04:15:42.963Z,5.17
2019-03-11T04:18:12.919Z,11.63
2019-03-11T04:20:42.492Z,8.77
2019-03-11T04:23:12.539Z,20.70
2019-03-11T04:25:42.322Z,6.57
2019-03-11T04:28:12.368Z,7.20
2019-03-11T04:30:41.936Z,3.50
2019-03-11T04:33:11.619Z,9.67
2019-03-11T04:35:41.507Z,14.00
2019-03-11T04:38:11.035Z,7.17
2019-03-11T04:40:40.728Z,7.27
2019-03-11T04:43:10.155Z,12.07
2019-03-11T04:45:40.237Z,6.70
2019-03-11T04:48:10.010Z,9.27
2019-03-11T04:50:39.771Z,9.20
2019-03-11T04:53:09.509Z,10.53
2019-03-11T04:55:39.143Z,6.93
2019-03-11T04:58:08.562Z,4.23
2019-03-11T05:00:38.504Z,9.50
2019-03-11T05:03:08.284Z,7.03
2019-03-11T05:05:37.706Z,3.50
2019-03-11T05:08:07.632Z,9.83
2019-03-11T05:10:37.403Z,10.13
2019-03-11T05:13:06.895Z,20.47
2019-03-11T05:15:36.704Z,5.47
2019-03-11T05:18:06.488Z,11.27
2019-03-11T05:20:35.987Z,11.10
2019-03-11T05:23:05.482Z,9.40
2019-03-11T05:25:35.066Z,8.13
2019-03-11T05:28:04.907Z,5.80
2019-03-11T05:30:34.467Z,8.30
2019-03-11T05:33:04.180Z,5.90
2019-03-11T05:35:34.039Z,7.43
2019-03-11T05:38:03.456Z,9.73
2019-03-11T05:40:32.899Z,24.60
2019-03-11T05:43:02.660Z,8.63
2019-03-11T05:45:32.078Z,7.87
2019-03-11T05:48:01.530Z,7.87
2019-03-11T05:50:30.951Z,9.20
2019-03-11T05:53:00.438Z,4.70
2019-03-11T05:55:30.713Z,6.30
2019-03-11T05:58:00.389Z,5.00
2019-03-11T06:00:31.864Z,229.07
2019-03-11T06:03:01.564Z,253.73
2019-03-11T06:05:31.143Z,207.70
2019-03-11T06:08:00.899Z,165.27
2019-03-11T06:10:30.834Z,123.87
2019-03-11T06:13:00.619Z,97.10
2019-03-11T06:15:30.146Z,98.63
2019-03-11T06:18:00.551Z,100.10
2019-03-11T06:20:37.407Z,102.17
2019-03-11T06:23:08.987Z,107.20
2019-03-11T06:25:38.703Z,106.97
2019-03-11T06:28:08.214Z,101.90
2019-03-11T06:30:38.319Z,92.50
2019-03-11T06:33:07.753Z,91.90
2019-03-11T06:35:37.179Z,82.80
2019-03-11T06:38:07.200Z,72.00
2019-03-11T06:40:36.628Z,66.63
2019-03-11T06:43:06.467Z,51.17
2019-03-11T06:45:35.928Z,31.73
2019-03-11T06:48:05.363Z,142.37
2019-03-11T06:50:34.938Z,70.77
2019-03-11T06:53:04.467Z,32.00
2019-03-11T06:55:34.195Z,40.87
2019-03-11T06:58:04.012Z,51.57
2019-03-11T07:00:33.985Z,61.90
2019-03-11T07:03:03.683Z,63.60
2019-03-11T07:05:33.173Z,60.23
2019-03-11T07:08:02.666Z,64.57
2019-03-11T07:10:32.664Z,67.80
2019-03-11T07:13:02.101Z,56.27
2019-03-11T07:15:31.636Z,52.37
2019-03-11T07:18:01.800Z,54.33
2019-03-11T07:20:31.711Z,63.40
2019-03-11T07:23:01.223Z,64.27
2019-03-11T07:25:30.684Z,74.47
2019-03-11T07:28:00.235Z,75.23
2019-03-11T07:30:29.779Z,92.27
2019-03-11T07:32:59.479Z,106.83
2019-03-11T07:35:29.055Z,107.07
2019-03-11T07:37:58.531Z,118.73
2019-03-11T07:40:30.094Z,120.73
2019-03-11T07:42:59.439Z,138.50
2019-03-11T07:45:29.083Z,170.60
2019-03-11T07:47:58.527Z,200.90
2019-03-11T07:50:28.046Z,213.63
2019-03-11T07:52:57.664Z,209.37
2019-03-11T07:55:27.358Z,205.63
2019-03-11T07:57:57.019Z,193.63
2019-03-11T08:00:26.875Z,212.37
2019-03-11T08:02:56.391Z,203.63
2019-03-11T08:05:25.899Z,186.57
2019-03-11T08:07:58.752Z,183.80
2019-03-11T08:10:28.591Z,198.07
2019-03-11T08:12:58.404Z,194.27
2019-03-11T08:15:28.013Z,193.00
2019-03-11T08:17:57.614Z,187.83
2019-03-11T08:20:27.193Z,179.63
2019-03-11T08:22:57.679Z,174.33
2019-03-11T08:25:27.576Z,169.70
2019-03-11T08:27:57.027Z,179.97
2019-03-11T08:30:27.297Z,158.00
2019-03-11T08:32:56.802Z,156.90
2019-03-11T08:35:26.314Z,137.13
2019-03-11T08:37:56.120Z,143.53
2019-03-11T08:40:25.560Z,133.77
2019-03-11T08:42:54.999Z,135.17
2019-03-11T08:45:24.608Z,128.77
2019-03-11T08:48:13.380Z,119.10
2019-03-11T08:50:43.158Z,122.50
2019-03-11T08:53:12.675Z,127.73
2019-03-11T08:55:42.120Z,120.67
2019-03-11T08:58:11.987Z,109.47
2019-03-11T09:00:41.563Z,121.33
2019-03-11T09:03:11.058Z,118.43
2019-03-11T09:05:40.540Z,115.97
2019-03-11T09:08:10.138Z,108.33
2019-03-11T09:10:39.637Z,110.37
2019-03-11T09:13:09.318Z,100.10
2019-03-11T09:15:39.080Z,75.27
2019-03-11T09:18:08.596Z,74.47
2019-03-11T09:20:38.408Z,71.63
2019-03-11T09:23:07.913Z,73.87
2019-03-11T09:25:37.921Z,69.30
2019-03-11T09:28:07.450Z,68.87
2019-03-11T09:30:36.885Z,63.00
2019-03-11T09:33:08.341Z,40.60
2019-03-11T09:35:37.953Z,8.90
2019-03-11T09:38:07.436Z,10.00
2019-03-11T09:40:37.084Z,8.23
2019-03-11T09:43:07.019Z,9.23
2019-03-11T09:45:36.940Z,9.17
2019-03-11T09:48:06.440Z,10.40
2019-03-11T09:50:36.251Z,9.77
2019-03-11T09:53:06.118Z,10.00
2019-03-11T09:55:35.558Z,10.30
2019-03-11T09:58:05.642Z,9.50
2019-03-11T10:00:36.324Z,10.13
2019-03-11T10:03:06.096Z,10.40
2019-03-11T10:05:35.567Z,10.50
2019-03-11T10:08:05.203Z,9.80
2019-03-11T10:10:34.861Z,11.47
2019-03-11T10:13:04.464Z,10.23
2019-03-11T10:15:33.956Z,10.87
2019-03-11T10:18:03.523Z,8.90
2019-03-11T10:20:33.345Z,10.73
2019-03-11T10:23:02.834Z,11.07
2019-03-11T10:25:32.335Z,10.70
2019-03-11T10:28:03.093Z,12.80
2019-03-11T10:30:32.615Z,10.47
2019-03-11T10:33:02.104Z,9.50
2019-03-11T10:35:32.905Z,9.80
2019-03-11T10:38:03.019Z,10.47
2019-03-11T10:40:33.490Z,20.17
2019-03-11T10:43:03.872Z,8.50
2019-03-11T10:45:33.291Z,9.30
2019-03-11T10:48:03.157Z,10.90
2019-03-11T10:50:32.606Z,9.33
2019-03-11T10:53:02.099Z,8.60
2019-03-11T10:55:31.855Z,10.10
2019-03-11T10:58:01.774Z,11.23
2019-03-11T11:00:33.275Z,9.83
2019-03-11T11:03:03.595Z,10.33
2019-03-11T11:05:33.352Z,8.83
2019-03-11T11:08:02.834Z,13.73
2019-03-11T11:10:32.277Z,10.77
2019-03-11T11:13:01.931Z,9.70
2019-03-11T11:15:32.978Z,10.80
2019-03-11T11:18:02.777Z,7.50
2019-03-11T11:20:32.704Z,9.93
2019-03-11T11:23:02.620Z,9.10
2019-03-11T11:25:32.553Z,10.27
2019-03-11T11:28:02.298Z,9.97
2019-03-11T11:30:32.786Z,9.57
2019-03-11T11:33:02.899Z,9.53
2019-03-11T11:35:32.350Z,9.70
2019-03-11T11:38:01.927Z,10.23
2019-03-11T11:40:32.227Z,10.50
2019-03-11T11:43:01.732Z,10.67
2019-03-11T11:45:32.905Z,10.43
2019-03-11T11:48:02.403Z,10.03
2019-03-11T11:50:32.154Z,11.27
2019-03-11T11:53:01.739Z,9.90
2019-03-11T11:55:31.580Z,10.57
2019-03-11T11:58:01.128Z,10.07
2019-03-11T12:00:33.438Z,10.97
2019-03-11T12:03:03.314Z,9.73
2019-03-11T12:05:33.487Z,10.63
2019-03-11T12:08:03.436Z,10.23
2019-03-11T12:10:35.962Z,9.97
2019-03-11T12:13:05.607Z,10.60
2019-03-11T12:15:35.103Z,10.33
2019-03-11T12:18:05.164Z,9.73
2019-03-11T12:20:34.826Z,8.40
2019-03-11T12:23:04.590Z,9.20
2019-03-11T12:25:34.222Z,9.93
2019-03-11T12:28:04.003Z,9.80
2019-03-11T12:30:34.751Z,10.83
2019-03-11T12:33:04.774Z,11.23
2019-03-11T12:35:34.370Z,11.40
2019-03-11T12:38:03.949Z,10.63
2019-03-11T12:40:33.467Z,10.30
2019-03-11T12:43:03.688Z,10.57
2019-03-11T12:45:33.252Z,10.50
2019-03-11T12:48:03.107Z,11.97
2019-03-11T12:50:33.580Z,10.63
2019-03-11T12:53:03.159Z,10.87
2019-03-11T12:55:32.754Z,11.17
2019-03-11T12:58:02.225Z,11.30
2019-03-11T13:00:31.975Z,11.63
2019-03-11T13:03:01.484Z,12.43
2019-03-11T13:05:31.316Z,12.07
2019-03-11T13:08:00.860Z,12.13
2019-03-11T13:10:33.787Z,11.97
2019-03-11T13:13:03.667Z,13.50
2019-03-11T13:15:33.299Z,11.10
2019-03-11T13:18:25.212Z,11.87
2019-03-11T13:20:54.650Z,13.23
2019-03-11T13:23:24.064Z,3.70
2019-03-11T13:25:53.798Z,3.80
2019-03-11T13:28:23.567Z,5.90
2019-03-11T13:30:53.298Z,3.57
2019-03-11T13:33:22.784Z,4.30
2019-03-11T13:35:52.527Z,2.80
2019-03-11T13:38:22.149Z,3.83
2019-03-11T13:40:51.875Z,5.30
2019-03-11T13:43:24.593Z,7.40
2019-03-11T13:45:54.494Z,5.53
2019-03-11T13:48:24.283Z,5.97
2019-03-11T13:50:54.131Z,6.37
2019-03-11T13:53:24.127Z,8.80
2019-03-11T13:55:53.575Z,9.50
2019-03-11T13:58:23.220Z,11.37
2019-03-11T14:00:56.795Z,8.93
2019-03-11T14:03:23.834Z,6.60
2019-03-11T14:05:53.343Z,8.27
2019-03-11T14:08:22.824Z,9.67
2019-03-11T14:10:53.503Z,9.90
2019-03-11T14:13:23.091Z,9.80
2019-03-11T14:15:52.879Z,11.50
2019-03-11T14:18:22.397Z,11.40
2019-03-11T14:20:51.863Z,12.27
2019-03-11T14:23:21.459Z,11.73
2019-03-11T14:25:50.919Z,11.87
2019-03-11T14:28:20.419Z,11.77
2019-03-11T14:30:50.161Z,13.33
2019-03-11T14:33:20.344Z,11.27
2019-03-11T14:35:52.113Z,12.57
2019-03-11T14:38:21.279Z,12.10
2019-03-11T14:40:50.893Z,13.93
2019-03-11T14:43:21.150Z,12.83
2019-03-11T14:45:50.626Z,13.30
2019-03-11T14:48:20.339Z,12.60
2019-03-11T14:50:49.855Z,11.90
2019-03-11T14:53:19.587Z,13.23
2019-03-11T14:55:49.223Z,12.47
2019-03-11T14:58:28.729Z,11.97
2019-03-11T15:00:49.919Z,12.27
2019-03-11T15:03:19.552Z,21.23
2019-03-11T15:05:49.091Z,13.10
2019-03-11T15:08:18.595Z,11.90
2019-03-11T15:10:48.132Z,10.70
2019-03-11T15:13:17.792Z,110.40
2019-03-11T15:15:47.294Z,23.17
2019-03-11T15:18:17.246Z,3.00
2019-03-11T15:20:46.746Z,11.37
2019-03-11T15:23:20.696Z,2.10
2019-03-11T15:25:47.838Z,8.27
2019-03-11T15:28:18.160Z,5.90
2019-03-11T15:30:47.964Z,7.20
2019-03-11T15:33:17.427Z,2.77
2019-03-11T15:35:46.955Z,2.73
2019-03-11T15:38:16.420Z,2.63
2019-03-11T15:40:46.775Z,3.70
2019-03-11T15:43:16.526Z,3.50
2019-03-11T15:45:46.461Z,6.27
2019-03-11T15:48:16.027Z,4.97
2019-03-11T15:50:45.620Z,5.03
2019-03-11T15:53:15.101Z,6.20
2019-03-11T15:55:44.874Z,8.90
2019-03-11T15:58:15.187Z,10.07
2019-03-11T16:00:44.709Z,12.83
2019-03-11T16:03:14.659Z,12.77
2019-03-11T16:05:44.087Z,12.20
2019-03-11T16:08:13.526Z,11.90
2019-03-11T16:10:43.071Z,12.00
2019-03-11T16:13:12.571Z,11.80
2019-03-11T16:15:42.041Z,10.97
2019-03-11T16:18:11.579Z,12.07
2019-03-11T16:20:41.436Z,11.90
2019-03-11T16:23:11.036Z,11.70
2019-03-11T16:25:40.945Z,12.73
2019-03-11T16:28:10.423Z,12.17
2019-03-11T16:30:39.854Z,14.60
2019-03-11T16:33:09.332Z,11.80
2019-03-11T16:35:39.289Z,13.07
2019-03-11T16:38:08.727Z,12.73
2019-03-11T16:40:38.254Z,158.40
2019-03-11T16:43:08.122Z,66.40
2019-03-11T16:45:37.558Z,60.23
2019-03-11T16:48:07.127Z,66.93
2019-03-11T16:50:36.551Z,75.40
2019-03-11T16:53:06.151Z,85.83
2019-03-11T16:55:37.386Z,95.07
2019-03-11T16:58:07.501Z,94.60
2019-03-11T17:00:40.293Z,94.97
2019-03-11T17:03:10.239Z,104.57
2019-03-11T17:05:40.357Z,107.10
2019-03-11T17:08:10.412Z,110.03
2019-03-11T17:10:40.355Z,108.80
2019-03-11T17:13:09.867Z,117.17
2019-03-11T17:15:39.373Z,106.90
2019-03-11T17:18:09.178Z,108.20
2019-03-11T17:20:38.731Z,109.67
2019-03-11T17:23:10.571Z,107.10
2019-03-11T17:25:40.740Z,121.87
2019-03-11T17:28:10.629Z,118.50
2019-03-11T17:30:40.562Z,113.83
2019-03-11T17:33:10.552Z,118.50
2019-03-11T17:35:40.021Z,120.47
2019-03-11T17:38:09.750Z,104.30
2019-03-11T17:40:39.451Z,109.93
2019-03-11T17:43:28.457Z,104.90
2019-03-11T17:45:58.150Z,99.57
2019-03-11T17:48:27.583Z,100.90
2019-03-11T17:50:57.096Z,95.77
2019-03-11T17:53:26.610Z,95.87
2019-03-11T17:55:56.044Z,80.33
2019-03-11T17:58:25.635Z,82.40
2019-03-11T18:00:56.010Z,78.97
2019-03-11T18:03:25.899Z,75.97
2019-03-11T18:05:57.111Z,68.57
2019-03-11T18:08:26.829Z,66.03
2019-03-11T18:10:56.417Z,59.37
2019-03-11T18:13:25.935Z,52.07
2019-03-11T18:15:55.709Z,56.43
2019-03-11T18:18:32.657Z,53.43
2019-03-11T18:20:56.335Z,50.43
2019-03-11T18:23:26.169Z,48.37
2019-03-11T18:26:16.531Z,51.70
2019-03-11T18:28:46.440Z,51.67
2019-03-11T18:31:18.179Z,51.90
2019-03-11T18:33:47.864Z,56.53
2019-03-11T18:36:18.020Z,57.40
2019-03-11T18:38:47.540Z,59.87
2019-03-11T18:41:17.032Z,59.10
2019-03-11T18:43:47.164Z,64.13
2019-03-11T18:46:16.659Z,64.90
2019-03-11T18:48:46.457Z,63.90
2019-03-11T18:51:16.572Z,72.93
2019-03-11T18:53:46.145Z,78.83
2019-03-11T18:56:15.795Z,73.00
2019-03-11T18:58:45.311Z,74.77
2019-03-11T19:01:14.766Z,77.10
2019-03-11T19:03:44.329Z,80.70
2019-03-11T19:06:13.933Z,87.97
2019-03-11T19:08:43.684Z,87.00
2019-03-11T19:11:13.110Z,95.43
2019-03-11T19:13:42.747Z,103.60
2019-03-11T19:16:12.307Z,112.07
2019-03-11T19:18:44.679Z,119.97
2019-03-11T19:21:14.248Z,120.30
2019-03-11T19:23:44.023Z,131.63
2019-03-11T19:26:14.051Z,152.10
2019-03-11T19:28:44.106Z,160.77
2019-03-11T19:31:15.243Z,165.03
2019-03-11T19:33:44.703Z,160.33
2019-03-11T19:36:14.552Z,165.50
2019-03-11T19:38:44.028Z,164.80
2019-03-11T19:41:14.248Z,173.87
2019-03-11T19:43:49.756Z,166.70
2019-03-11T19:46:19.616Z,170.27
2019-03-11T19:48:49.126Z,159.60
2019-03-11T19:51:18.883Z,170.63
2019-03-11T19:54:07.720Z,163.13
2019-03-11T19:56:37.402Z,162.03
2019-03-11T19:59:07.007Z,153.30
2019-03-11T20:01:36.551Z,158.33
2019-03-11T20:04:06.255Z,158.90
2019-03-11T20:06:36.107Z,159.30
2019-03-11T20:09:09.483Z,139.10
2019-03-11T20:11:39.070Z,15.70
2019-03-11T20:14:08.573Z,15.90
2019-03-11T20:16:38.138Z,14.60
2019-03-11T20:19:08.195Z,13.63
2019-03-11T20:21:37.811Z,14.50
2019-03-11T20:24:07.547Z,12.60
2019-03-11T20:26:38.258Z,14.07
2019-03-11T20:29:07.995Z,13.87
2019-03-11T20:31:37.908Z,13.50
2019-03-11T20:34:07.435Z,12.27
2019-03-11T20:36:37.102Z,13.40
2019-03-11T20:39:07.836Z,13.63
2019-03-11T20:41:37.942Z,9.40
2019-03-11T20:44:07.412Z,8.10
2019-03-11T20:46:37.171Z,5.60
2019-03-11T20:49:07.449Z,4.10
2019-03-11T20:51:36.930Z,7.93
2019-03-11T20:54:25.771Z,4.90
2019-03-11T20:56:55.448Z,5.53
2019-03-11T20:59:24.984Z,3.90
2019-03-11T21:01:55.339Z,6.13
2019-03-11T21:04:24.908Z,5.37
2019-03-11T21:06:54.428Z,5.10
2019-03-11T21:09:23.969Z,4.53
2019-03-11T21:11:54.732Z,5.80
2019-03-11T21:14:24.550Z,5.53
2019-03-11T21:16:54.224Z,7.90
2019-03-11T21:19:23.673Z,13.23
2019-03-11T21:21:53.168Z,11.37
2019-03-11T21:24:22.851Z,13.10
2019-03-11T21:26:52.329Z,13.70
2019-03-11T21:29:22.121Z,13.27
2019-03-11T21:31:52.102Z,14.07
2019-03-11T21:34:22.009Z,13.07
2019-03-11T21:36:51.532Z,13.40
2019-03-11T21:39:21.125Z,14.63
2019-03-11T21:41:50.859Z,14.23
2019-03-11T21:44:20.363Z,14.37
2019-03-11T21:46:50.595Z,13.70
2019-03-11T21:49:20.151Z,13.37
2019-03-11T21:51:49.790Z,13.80
2019-03-11T21:57:05.331Z,14.03
2019-03-11T21:59:34.890Z,14.43
2019-03-11T22:02:04.670Z,14.90
2019-03-11T22:04:34.444Z,14.33
2019-03-11T22:07:03.951Z,14.00
2019-03-11T22:09:33.375Z,13.33
2019-03-11T22:12:02.923Z,13.37
2019-03-11T22:14:32.464Z,13.53
2019-03-11T22:17:02.017Z,13.37
2019-03-11T22:19:31.549Z,13.67
2019-03-11T22:22:01.471Z,13.80
2019-03-11T22:24:31.457Z,14.17
2019-03-11T22:27:01.575Z,14.13
2019-03-11T22:29:31.106Z,14.30
2019-03-11T22:32:00.606Z,15.53
2019-03-11T22:34:30.066Z,13.30
2019-03-11T22:36:59.627Z,13.60
2019-03-11T22:39:29.160Z,13.50
2019-03-11T22:41:58.795Z,13.97
2019-03-11T22:44:28.316Z,14.90
2019-03-11T22:46:57.891Z,14.33
2019-03-11T22:49:27.695Z,14.67
2019-03-11T22:51:57.274Z,16.93
2019-03-11T22:54:26.923Z,13.80
2019-03-11T22:56:56.442Z,13.80
2019-03-11T22:59:25.880Z,14.73
2019-03-11T23:01:55.370Z,14.20
2019-03-11T23:04:24.895Z,14.47
2019-03-11T23:06:54.651Z,15.10
2019-03-11T23:09:24.157Z,14.27
2019-03-11T23:11:54.171Z,14.37
2019-03-11T23:14:23.662Z,13.80
2019-03-11T23:16:53.088Z,14.43
2019-03-11T23:19:22.546Z,13.90
2019-03-11T23:21:52.183Z,14.37
2019-03-11T23:24:21.611Z,13.43
2019-03-11T23:26:51.203Z,14.37
2019-03-11T23:29:20.704Z,14.60
2019-03-11T23:31:50.199Z,14.27
2019-03-11T23:34:20.323Z,15.00
2019-03-11T23:36:49.821Z,14.00
2019-03-11T23:39:19.252Z,13.87
2019-03-11T23:41:48.996Z,14.13
2019-03-11T23:44:18.430Z,13.67
2019-03-11T23:46:47.990Z,14.10
2019-03-11T23:49:17.533Z,12.97
2019-03-11T23:51:47.143Z,13.20
2019-03-11T23:54:16.646Z,14.67
2019-03-11T23:56:46.811Z,14.30
2019-03-11T23:59:16.234Z,13.80
